Time;durP1;ratioP1;P1;durP2;ratioP2;P2;SDS_P1;SDS_P2;PMS_P1;PMS_P2;Temp;Humidity;BMP_temperature;BMP_pressure;BME280_temperature;BME280_humidity;BME280_pressure;Samples;Min_cycle;Max_cycle;Signal;HPM_P1;HPM_P2
2023/02/22 00:01:34;;;;;;;95.90;42.60;;;7.00;99.90;;;;;;5004270;28;40142;-81
2023/02/22 00:04:06;;;;;;;87.47;41.47;;;7.00;99.90;;;;;;4993224;28;39861;-81
2023/02/22 00:06:33;;;;;;;81.32;39.90;;;6.90;99.90;;;;;;4986953;28;48922;-82
2023/02/22 00:09:10;;;;;;;84.60;40.73;;;6.90;99.90;;;;;;4998238;28;37778;-83
2023/02/22 00:11:45;;;;;;;80.17;38.73;;;6.80;99.90;;;;;;5014223;28;48488;-82
2023/02/22 00:14:19;;;;;;;84.13;39.90;;;6.80;99.90;;;;;;4996524;28;41196;-82
2023/02/22 00:16:49;;;;;;;75.07;38.67;;;6.80;99.90;;;;;;4992369;28;37463;-81
2023/02/22 00:19:21;;;;;;;84.20;40.77;;;6.80;99.90;;;;;;4974265;28;37938;-82
2023/02/22 00:21:53;;;;;;;83.85;39.70;;;6.80;99.90;;;;;;4988963;28;38032;-82
2023/02/22 00:24:24;;;;;;;83.25;40.47;;;6.80;99.90;;;;;;5003740;28;39589;-82
2023/02/22 00:26:57;;;;;;;79.10;37.87;;;6.80;99.90;;;;;;5016701;28;39517;-82
2023/02/22 00:29:27;;;;;;;79.80;39.33;;;6.80;99.90;;;;;;4994501;28;38249;-81
2023/02/22 00:31:54;;;;;;;74.47;38.60;;;6.80;99.90;;;;;;4998557;28;39187;-82
2023/02/22 00:34:23;;;;;;;85.47;41.27;;;6.80;99.90;;;;;;4988672;28;38138;-81
2023/02/22 00:36:51;;;;;;;90.43;42.40;;;6.80;99.90;;;;;;4994077;28;39483;-82
2023/02/22 00:39:36;;;;;;;95.10;45.20;;;6.70;99.90;;;;;;4994818;28;37903;-82
2023/02/22 00:42:04;;;;;;;89.40;44.00;;;6.70;99.90;;;;;;4969484;28;41008;-81
2023/02/22 00:44:36;;;;;;;90.00;43.78;;;6.70;99.90;;;;;;5019924;28;39206;-82
2023/02/22 00:47:07;;;;;;;89.27;44.20;;;6.70;99.90;;;;;;5000350;28;38636;-82
2023/02/22 00:49:41;;;;;;;99.83;45.77;;;6.70;99.90;;;;;;5009451;28;38695;-82
2023/02/22 00:52:09;;;;;;;100.45;46.97;;;6.60;99.90;;;;;;4971262;28;38325;-82
2023/02/22 00:54:36;;;;;;;91.23;42.90;;;6.60;99.90;;;;;;4974559;28;38051;-82
2023/02/22 00:57:10;;;;;;;95.60;44.70;;;6.60;99.90;;;;;;4945231;28;38040;-82
2023/02/22 00:59:42;;;;;;;98.90;45.67;;;6.60;99.90;;;;;;4993817;28;48680;-82
2023/02/22 01:02:19;;;;;;;;;;;6.60;99.90;;;;;;4990173;28;39385;-82
2023/02/22 01:04:47;;;;;;;99.77;42.83;;;6.70;99.90;;;;;;4972610;28;39481;-82
2023/02/22 01:07:15;;;;;;;107.40;47.00;;;6.60;99.90;;;;;;4985041;28;39655;-82
2023/02/22 01:09:43;;;;;;;107.07;47.33;;;6.60;99.90;;;;;;4970215;28;36559;-82
2023/02/22 01:12:31;;;;;;;99.03;45.83;;;6.60;99.90;;;;;;4945465;28;40299;-82
2023/02/22 01:15:12;;;;;;;101.37;44.80;;;6.60;99.90;;;;;;5004984;28;39278;-82
2023/02/22 01:17:53;;;;;;;102.03;44.72;;;6.50;99.90;;;;;;4936600;28;45677;-81
2023/02/22 01:20:30;;;;;;;97.70;43.60;;;6.40;99.90;;;;;;4988630;28;38185;-82
2023/02/22 01:23:06;;;;;;;95.80;42.23;;;6.30;99.90;;;;;;4987392;28;40163;-82
2023/02/22 01:25:49;;;;;;;95.10;43.30;;;6.30;99.90;;;;;;4969542;28;49287;-82
2023/02/22 01:28:17;;;;;;;100.85;44.40;;;6.30;99.90;;;;;;4983809;28;38724;-81
2023/02/22 01:30:51;;;;;;;101.07;45.37;;;6.30;99.90;;;;;;4960961;28;37711;-81
2023/02/22 01:33:19;;;;;;;105.10;44.80;;;6.30;99.90;;;;;;4965133;28;40344;-82
2023/02/22 01:36:00;;;;;;;101.40;43.60;;;6.30;99.90;;;;;;4964148;28;38917;-80
2023/02/22 01:38:33;;;;;;;114.43;45.07;;;6.20;99.90;;;;;;4965320;28;37781;-82
2023/02/22 01:41:03;;;;;;;109.45;44.72;;;6.10;99.90;;;;;;4966263;28;38005;-80
2023/02/22 01:43:47;;;;;;;111.53;47.03;;;6.00;99.90;;;;;;4964850;28;47097;-81
2023/02/22 01:46:48;;;;;;;116.33;45.27;;;6.00;99.90;;;;;;4973947;28;38262;-81
2023/02/22 01:49:19;;;;;;;116.90;47.30;;;6.00;99.90;;;;;;4961614;28;39922;-80
2023/02/22 01:51:57;;;;;;;118.27;47.30;;;6.00;99.90;;;;;;4973180;28;37846;-80
2023/02/22 01:54:48;;;;;;;113.67;45.77;;;6.00;99.90;;;;;;4982397;28;38533;-81
2023/02/22 01:57:19;;;;;;;110.80;46.43;;;6.00;99.90;;;;;;4996235;28;39157;-82
2023/02/22 01:59:59;;;;;;;114.07;46.63;;;6.00;99.90;;;;;;4986491;28;38507;-81
2023/02/22 02:02:29;;;;;;;121.97;47.63;;;6.10;99.90;;;;;;5711254;23;39666;-83
2023/02/22 02:05:14;;;;;;;129.37;49.63;;;6.00;99.90;;;;;;4973896;28;38119;-84
2023/02/22 02:08:05;;;;;;;119.30;50.27;;;5.90;99.90;;;;;;4984060;28;48526;-84
2023/02/22 02:10:34;;;;;;;123.33;50.17;;;5.90;99.90;;;;;;4998506;28;50137;-84
2023/02/22 02:13:10;;;;;;;128.90;48.60;;;5.90;99.90;;;;;;5003187;28;38911;-84
2023/02/22 02:15:39;;;;;;;120.43;48.00;;;5.90;99.90;;;;;;4990631;28;49118;-84
2023/02/22 02:18:09;;;;;;;117.60;48.17;;;5.90;99.90;;;;;;4992491;28;38938;-84
2023/02/22 02:20:59;;;;;;;119.17;47.87;;;5.90;99.90;;;;;;4997452;28;40982;-85
2023/02/22 02:23:43;;;;;;;126.73;48.43;;;6.00;99.90;;;;;;5025396;23;37588;-84
2023/02/22 02:26:34;;;;;;;135.70;50.80;;;5.90;99.90;;;;;;5011142;28;37817;-84
2023/02/22 02:29:15;;;;;;;118.40;46.80;;;6.00;99.90;;;;;;5005904;28;38065;-85
2023/02/22 02:32:06;;;;;;;110.20;45.37;;;5.90;99.90;;;;;;5017688;28;48034;-85
2023/02/22 02:34:35;;;;;;;112.53;46.70;;;5.80;99.90;;;;;;4988576;28;48163;-82
2023/02/22 02:37:24;;;;;;;120.90;49.60;;;5.80;99.90;;;;;;5017524;28;38464;-82
2023/02/22 02:40:16;;;;;;;128.70;48.47;;;5.80;99.90;;;;;;4997932;28;38172;-84
2023/02/22 02:42:59;;;;;;;116.75;47.28;;;5.90;99.90;;;;;;5013642;28;48393;-84
2023/02/22 02:45:38;;;;;;;127.97;48.43;;;5.80;99.90;;;;;;5010664;28;38749;-84
2023/02/22 02:48:08;;;;;;;136.67;50.77;;;5.80;99.90;;;;;;4999386;28;37344;-83
2023/02/22 02:50:43;;;;;;;119.83;48.10;;;5.80;99.90;;;;;;5002059;28;39388;-84
2023/02/22 02:53:15;;;;;;;121.23;49.43;;;5.70;99.90;;;;;;4996640;28;39232;-84
2023/02/22 02:55:44;;;;;;;124.90;46.97;;;5.70;99.90;;;;;;5297494;23;38715;-82
2023/02/22 02:58:20;;;;;;;126.75;48.25;;;5.80;99.90;;;;;;4992267;28;39996;-83
2023/02/22 03:00:55;;;;;;;122.70;47.25;;;5.70;99.90;;;;;;4982836;28;37812;-82
2023/02/22 03:03:48;;;;;;;176.97;53.40;;;5.70;99.90;;;;;;4998141;28;38770;-83
2023/02/22 03:06:31;;;;;;;;;;;5.70;99.90;;;;;;4994552;28;37957;-82
2023/02/22 03:09:37;;;;;;;127.77;45.73;;;5.70;99.90;;;;;;5000006;28;38827;-83
2023/02/22 03:12:17;;;;;;;129.90;47.53;;;5.60;99.90;;;;;;4990332;28;49419;-83
2023/02/22 03:15:03;;;;;;;116.90;47.80;;;5.60;99.90;;;;;;4990711;28;37297;-83
2023/02/22 03:17:57;;;;;;;135.10;49.17;;;5.60;99.90;;;;;;4973233;28;48210;-83
2023/02/22 03:20:31;;;;;;;137.37;49.83;;;5.60;99.90;;;;;;4949108;28;38791;-83
2023/02/22 03:23:08;;;;;;;164.43;49.27;;;5.60;99.90;;;;;;4940874;28;38443;-82
2023/02/22 03:25:49;;;;;;;180.17;52.30;;;5.60;99.90;;;;;;4930419;29;48096;-84
2023/02/22 03:28:25;;;;;;;137.93;49.50;;;5.60;99.90;;;;;;4922344;28;37896;-84
2023/02/22 03:31:18;;;;;;;134.67;48.40;;;5.60;99.90;;;;;;4964165;28;38842;-83
2023/02/22 03:33:51;;;;;;;138.37;50.10;;;5.60;99.90;;;;;;4956568;28;48867;-83
2023/02/22 03:36:31;;;;;;;169.52;53.42;;;5.60;99.90;;;;;;4941907;28;39597;-84
2023/02/22 03:39:29;;;;;;;124.87;48.53;;;5.70;99.90;;;;;;4947746;28;37484;-83
2023/02/22 03:42:31;;;;;;;145.30;48.97;;;5.60;99.90;;;;;;4926012;28;47596;-83
2023/02/22 03:45:17;;;;;;;142.17;50.03;;;5.60;99.90;;;;;;4922883;28;47660;-83
2023/02/22 03:47:53;;;;;;;174.80;52.80;;;5.70;99.90;;;;;;4933043;28;49142;-83
2023/02/22 03:50:30;;;;;;;152.37;50.07;;;5.70;99.90;;;;;;4946103;28;37965;-83
2023/02/22 03:53:11;;;;;;;117.47;47.50;;;5.70;99.90;;;;;;4898395;29;37661;-83
2023/02/22 03:55:40;;;;;;;128.20;46.40;;;5.70;99.90;;;;;;4929446;29;48713;-84
2023/02/22 03:58:20;;;;;;;110.70;45.87;;;5.70;99.90;;;;;;4925333;28;39682;-84
2023/02/22 04:00:53;;;;;;;129.10;46.20;;;5.60;99.90;;;;;;4955619;28;38421;-84
2023/02/22 04:03:35;;;;;;;176.07;45.90;;;5.60;99.90;;;;;;4947310;28;39165;-82
2023/02/22 04:06:11;;;;;;;235.10;50.33;;;5.60;99.90;;;;;;4935318;28;37871;-83
2023/02/22 04:08:53;;;;;;;139.77;45.50;;;5.60;99.90;;;;;;4947981;28;39621;-83
2023/02/22 04:11:28;;;;;;;179.67;44.77;;;5.50;99.90;;;;;;4956883;28;39004;-84
2023/02/22 04:14:08;;;;;;;207.20;45.50;;;5.60;99.90;;;;;;4946678;28;40033;-83
2023/02/22 04:16:46;;;;;;;118.77;38.93;;;5.50;99.90;;;;;;4930383;28;49378;-83
2023/02/22 04:19:16;;;;;;;129.27;40.67;;;5.40;99.90;;;;;;5004188;28;38483;-84
2023/02/22 04:21:49;;;;;;;116.93;39.23;;;5.40;99.90;;;;;;4994076;28;37626;-84
2023/02/22 04:24:44;;;;;;;138.02;36.80;;;5.40;99.90;;;;;;4974527;28;40305;-84
2023/02/22 04:27:31;;;;;;;168.27;40.13;;;5.40;99.90;;;;;;4974213;28;39616;-84
2023/02/22 04:30:08;;;;;;;171.20;38.83;;;5.50;99.90;;;;;;5015628;28;38758;-84
2023/02/22 04:33:04;;;;;;;264.40;44.70;;;5.50;99.90;;;;;;4988896;28;50022;-84
2023/02/22 04:35:40;;;;;;;215.80;44.23;;;5.50;99.90;;;;;;5013553;28;49241;-84
2023/02/22 04:38:11;;;;;;;159.23;38.53;;;5.60;99.90;;;;;;4993655;28;38318;-84
2023/02/22 04:40:41;;;;;;;92.40;36.07;;;5.50;99.90;;;;;;4999755;28;38343;-83
2023/02/22 04:43:16;;;;;;;104.27;36.63;;;5.40;99.90;;;;;;5258243;23;38283;-82
2023/02/22 04:45:59;;;;;;;149.00;38.40;;;5.50;99.90;;;;;;4943302;28;46950;-83
2023/02/22 04:48:30;;;;;;;137.13;39.13;;;5.50;99.90;;;;;;4963161;28;38980;-84
2023/02/22 04:51:04;;;;;;;100.60;35.23;;;5.50;99.90;;;;;;4977016;28;38680;-84
2023/02/22 04:53:38;;;;;;;135.17;37.87;;;5.60;99.90;;;;;;4953916;28;49064;-84
2023/02/22 04:56:09;;;;;;;125.93;37.23;;;5.50;99.90;;;;;;4928196;28;40366;-84
2023/02/22 04:58:42;;;;;;;154.03;39.03;;;5.50;99.90;;;;;;4964352;28;38426;-83
2023/02/22 05:04:39;;;;;;;112.97;36.87;;;5.50;99.90;;;;;;4972033;28;50875;-82
2023/02/22 05:07:15;;;;;;;106.93;36.33;;;5.60;99.90;;;;;;4984291;28;40398;-84
2023/02/22 05:09:42;;;;;;;103.53;34.67;;;5.50;99.90;;;;;;5036573;23;38517;-84
2023/02/22 05:12:22;;;;;;;162.73;39.43;;;5.50;99.90;;;;;;4999341;28;37278;-83
2023/02/22 05:14:49;;;;;;;111.17;36.30;;;5.50;99.90;;;;;;4992502;28;36948;-84
2023/02/22 05:17:23;;;;;;;116.47;35.70;;;5.50;99.90;;;;;;5000901;28;38625;-83
2023/02/22 05:22:35;;;;;;;144.23;38.17;;;5.50;99.90;;;;;;5032516;28;20038;-84
2023/02/22 05:25:02;;;;;;;100.53;36.07;;;5.50;99.90;;;;;;5026124;28;39107;-85
2023/02/22 05:27:37;;;;;;;144.40;40.53;;;5.50;99.90;;;;;;5062327;23;40074;-84
2023/02/22 05:30:08;;;;;;;138.23;36.77;;;5.60;99.90;;;;;;4995743;28;39757;-82
2023/02/22 05:32:38;;;;;;;130.93;36.17;;;5.60;99.90;;;;;;4964672;28;49579;-82
2023/02/22 05:35:11;;;;;;;113.03;36.53;;;5.60;99.90;;;;;;4998862;28;38791;-84
2023/02/22 05:38:02;;;;;;;99.93;33.90;;;5.60;99.90;;;;;;4991385;28;39409;-82
2023/02/22 05:40:36;;;;;;;158.87;40.60;;;5.50;99.90;;;;;;4980377;28;49273;-83
2023/02/22 05:43:09;;;;;;;154.23;40.33;;;5.50;99.90;;;;;;4983226;28;39705;-82
2023/02/22 05:45:56;;;;;;;79.10;33.17;;;5.50;99.90;;;;;;4971248;28;38410;-82
2023/02/22 05:48:27;;;;;;;82.37;33.97;;;5.50;99.90;;;;;;4974199;28;40370;-81
2023/02/22 05:50:56;;;;;;;103.73;35.67;;;5.60;99.90;;;;;;4986106;28;39322;-83
2023/02/22 05:53:34;;;;;;;79.20;33.77;;;5.60;99.90;;;;;;4980102;28;49168;-81
2023/02/22 05:56:22;;;;;;;131.63;35.33;;;5.50;99.90;;;;;;4974316;28;37935;-81
2023/02/22 05:58:55;;;;;;;124.50;33.80;;;5.50;99.90;;;;;;4977366;28;49016;-82
2023/02/22 06:01:26;;;;;;;114.97;31.60;;;5.40;99.90;;;;;;5009504;28;39063;-82
2023/02/22 06:03:58;;;;;;;68.53;28.87;;;5.30;99.90;;;;;;4984126;28;38733;-83
2023/02/22 06:07:28;;;;;;;;;;;;;;;;;;;;;
2023/02/22 06:09:56;;;;;;;76.03;29.80;;;5.30;99.90;;;;;;4988330;28;50218;-83
2023/02/22 06:13:24;;;;;;;72.30;29.55;;;5.30;99.90;;;;;;4981128;28;50501;-82
2023/02/22 06:16:10;;;;;;;74.87;30.07;;;5.20;99.90;;;;;;4964299;28;48544;-82
2023/02/22 06:19:07;;;;;;;72.10;31.47;;;5.30;99.90;;;;;;4973146;28;47848;-83
2023/02/22 06:22:09;;;;;;;67.53;29.63;;;5.30;99.90;;;;;;4952782;28;48783;-83
2023/02/22 06:24:51;;;;;;;75.23;32.67;;;5.40;99.90;;;;;;4951100;28;48736;-83
2023/02/22 06:27:47;;;;;;;83.17;32.70;;;5.30;99.90;;;;;;4936020;28;50077;-83
2023/02/22 06:30:24;;;;;;;109.27;37.90;;;5.40;99.90;;;;;;4959226;28;38196;-82
2023/02/22 06:32:59;;;;;;;72.27;32.40;;;5.50;99.90;;;;;;4974724;28;38339;-81
2023/02/22 06:35:34;;;;;;;104.90;34.07;;;5.50;99.90;;;;;;4973421;28;38913;-82
2023/02/22 06:38:04;;;;;;;63.83;32.13;;;5.50;99.90;;;;;;4998146;28;39532;-81
2023/02/22 06:40:31;;;;;;;74.00;32.43;;;5.40;99.90;;;;;;4996697;28;36080;-82
2023/02/22 06:42:58;;;;;;;67.60;31.37;;;5.40;99.90;;;;;;4995199;28;37471;-81
2023/02/22 06:45:25;;;;;;;61.97;31.00;;;5.40;99.90;;;;;;5004317;28;39143;-81
2023/02/22 06:47:51;;;;;;;74.50;32.37;;;5.40;99.90;;;;;;4999719;28;39359;-81
2023/02/22 06:50:23;;;;;;;69.27;31.97;;;5.50;99.90;;;;;;5008968;28;38541;-81
2023/02/22 06:52:53;;;;;;;81.07;34.70;;;5.50;99.90;;;;;;5020551;28;39577;-81
2023/02/22 06:55:27;;;;;;;89.27;33.60;;;5.50;99.90;;;;;;5005193;28;38471;-80
2023/02/22 06:57:55;;;;;;;74.80;34.13;;;5.50;99.90;;;;;;5019937;28;38320;-81
2023/02/22 07:00:26;;;;;;;72.57;33.03;;;5.40;99.90;;;;;;5026371;28;37478;-81
2023/02/22 07:02:55;;;;;;;64.43;31.17;;;5.50;99.90;;;;;;5024444;28;39600;-82
2023/02/22 07:05:26;;;;;;;66.87;31.97;;;5.50;99.90;;;;;;4970231;28;38910;-83
2023/02/22 07:08:06;;;;;;;73.33;32.30;;;5.50;99.90;;;;;;4984690;28;38333;-82
2023/02/22 07:11:09;;;;;;;60.17;30.50;;;5.50;99.90;;;;;;5016144;28;48166;-81
2023/02/22 07:13:56;;;;;;;67.47;30.95;;;5.50;99.90;;;;;;5828608;23;40038;-79
2023/02/22 07:16:53;;;;;;;86.00;34.53;;;5.50;99.90;;;;;;5236533;23;40117;-81
2023/02/22 07:20:10;;;;;;;70.57;31.77;;;5.60;99.90;;;;;;5026735;28;39572;-81
2023/02/22 07:23:11;;;;;;;69.90;31.73;;;5.50;99.90;;;;;;5001889;28;38700;-82
2023/02/22 07:34:01;;;;;;;82.00;35.30;;;5.60;99.90;;;;;;5065276;23;20046;-81
2023/02/22 07:47:40;;;;;;;62.10;30.77;;;5.60;99.90;;;;;;5015890;28;39302;-82
2023/02/22 08:18:48;;;;;;;59.97;29.63;;;5.80;99.90;;;;;;5277088;23;20047;-83
2023/02/22 08:22:14;;;;;;;54.33;28.23;;;5.90;99.90;;;;;;4973595;28;40402;-81
2023/02/22 08:25:20;;;;;;;57.13;29.10;;;6.00;99.90;;;;;;4943511;28;50362;-81
2023/02/22 08:28:03;;;;;;;50.70;27.20;;;6.00;99.90;;;;;;4971683;28;49470;-82
2023/02/22 08:30:56;;;;;;;51.53;27.97;;;6.10;99.90;;;;;;4955730;28;50145;-82
2023/02/22 08:33:26;;;;;;;50.53;28.27;;;6.30;99.90;;;;;;4993240;28;39782;-82
2023/02/22 08:35:53;;;;;;;51.10;27.83;;;6.30;99.90;;;;;;4966208;28;38974;-81
2023/02/22 08:38:29;;;;;;;47.97;27.10;;;6.40;99.90;;;;;;4961216;28;38866;-82
2023/02/22 08:41:05;;;;;;;50.33;27.27;;;6.40;99.90;;;;;;4953768;28;37039;-82
2023/02/22 08:43:44;;;;;;;51.37;25.47;;;6.40;99.90;;;;;;4934277;28;48868;-82
2023/02/22 08:47:07;;;;;;;47.80;27.23;;;6.60;99.90;;;;;;4962598;28;38732;-82
2023/02/22 08:49:42;;;;;;;45.00;25.77;;;6.70;99.90;;;;;;4942563;29;48898;-82
2023/02/22 08:52:17;;;;;;;43.37;25.77;;;6.60;99.90;;;;;;4934762;28;38903;-81
2023/02/22 08:54:46;;;;;;;43.30;25.60;;;6.60;99.90;;;;;;4983466;28;39593;-81
2023/02/22 08:57:20;;;;;;;44.33;25.70;;;6.60;99.90;;;;;;4960719;28;39104;-82
2023/02/22 09:00:24;;;;;;;47.33;26.00;;;6.60;99.90;;;;;;4962712;28;37962;-82
2023/02/22 09:05:40;;;;;;;40.73;25.50;;;6.80;99.90;;;;;;5132379;23;20043;-82
2023/02/22 09:08:16;;;;;;;43.37;25.50;;;6.80;99.90;;;;;;4974239;28;38698;-83
2023/02/22 09:10:47;;;;;;;41.73;24.60;;;6.80;99.90;;;;;;4992270;28;39776;-83
2023/02/22 09:13:15;;;;;;;41.60;23.53;;;6.90;99.90;;;;;;4976460;28;37843;-82
2023/02/22 09:15:59;;;;;;;35.47;22.77;;;6.90;99.90;;;;;;4990290;28;40347;-82
2023/02/22 09:18:46;;;;;;;40.10;24.13;;;7.00;99.90;;;;;;4979371;28;49503;-83
2023/02/22 09:21:41;;;;;;;34.53;23.00;;;7.00;99.90;;;;;;4952210;28;38862;-83
2023/02/22 09:24:20;;;;;;;38.20;23.37;;;7.10;99.90;;;;;;4963890;28;37984;-83
2023/02/22 09:27:03;;;;;;;35.33;21.70;;;7.10;99.90;;;;;;4953997;28;40210;-83
2023/02/22 09:30:10;;;;;;;34.10;21.67;;;7.00;99.90;;;;;;4982158;28;47643;-82
2023/02/22 09:33:10;;;;;;;36.87;22.90;;;7.00;99.90;;;;;;4966827;28;49040;-83
2023/02/22 09:35:46;;;;;;;35.43;22.17;;;6.80;99.90;;;;;;4965938;28;49005;-82
2023/02/22 09:38:47;;;;;;;33.77;21.03;;;6.80;99.90;;;;;;4966439;28;41305;-83
2023/02/22 09:41:54;;;;;;;38.57;22.83;;;6.90;99.90;;;;;;4978078;28;38915;-82
2023/02/22 09:47:51;;;;;;;34.77;21.63;;;6.90;99.90;;;;;;5373444;23;20054;-83
2023/02/22 09:50:28;;;;;;;36.70;22.60;;;6.90;99.90;;;;;;4972164;28;39018;-82
2023/02/22 09:53:29;;;;;;;37.80;22.83;;;7.00;99.90;;;;;;4977051;28;37744;-83
2023/02/22 09:56:06;;;;;;;34.97;21.93;;;7.00;99.90;;;;;;4988499;28;48570;-83
2023/02/22 09:58:41;;;;;;;36.30;22.67;;;7.00;99.90;;;;;;4984853;28;47541;-83
2023/02/22 10:01:26;;;;;;;36.80;22.83;;;7.00;99.90;;;;;;4986772;28;39292;-83
2023/02/22 10:04:11;;;;;;;39.23;24.03;;;7.00;99.90;;;;;;4993735;28;39228;-83
2023/02/22 10:06:41;;;;;;;35.23;22.80;;;7.10;99.90;;;;;;4982711;28;48463;-82
2023/02/22 10:09:15;;;;;;;37.87;22.23;;;7.20;99.90;;;;;;4982060;28;37566;-83
2023/02/22 10:11:47;;;;;;;36.43;22.37;;;7.20;99.90;;;;;;4990378;28;38763;-83
2023/02/22 10:14:42;;;;;;;36.65;22.70;;;7.20;99.90;;;;;;4996734;28;39091;-84
2023/02/22 10:17:31;;;;;;;32.30;21.53;;;7.30;99.90;;;;;;4977084;28;39609;-82
2023/02/22 10:20:21;;;;;;;36.00;22.40;;;7.40;99.90;;;;;;4998232;28;38880;-83
2023/02/22 10:22:56;;;;;;;33.30;21.63;;;7.60;99.90;;;;;;5253031;23;47881;-83
2023/02/22 10:25:29;;;;;;;33.70;21.87;;;7.70;99.90;;;;;;5007274;28;38484;-83
2023/02/22 10:28:02;;;;;;;31.87;21.00;;;7.70;99.90;;;;;;5017889;28;39413;-83
2023/02/22 10:30:53;;;;;;;35.90;21.87;;;7.80;99.90;;;;;;5002234;28;50390;-83
2023/02/22 10:33:46;;;;;;;31.97;21.37;;;7.90;99.90;;;;;;5009998;28;38593;-82
2023/02/22 10:36:19;;;;;;;34.30;21.57;;;8.10;99.90;;;;;;5001833;28;38722;-83
2023/02/22 10:39:01;;;;;;;32.30;20.30;;;8.20;99.90;;;;;;5015006;28;38591;-83
2023/02/22 10:41:41;;;;;;;30.67;21.20;;;8.30;99.90;;;;;;5016101;28;49059;-83
2023/02/22 10:44:14;;;;;;;31.53;21.27;;;8.30;99.90;;;;;;4999335;28;37482;-84
2023/02/22 10:46:40;;;;;;;;;;;8.40;99.90;;;;;;5016184;28;38588;-82
2023/02/22 10:49:12;;;;;;;30.40;19.47;;;8.50;99.90;;;;;;5005868;28;39399;-82
2023/02/22 10:51:38;;;;;;;31.70;21.20;;;8.50;99.90;;;;;;4997461;28;35908;-83
2023/02/22 10:54:14;;;;;;;31.77;21.10;;;8.60;99.90;;;;;;5012141;28;39492;-81
2023/02/22 10:56:55;;;;;;;35.40;21.47;;;8.60;99.90;;;;;;4997690;28;38217;-81
2023/02/22 10:59:36;;;;;;;33.33;21.60;;;8.70;99.90;;;;;;5015751;28;39697;-83
2023/02/22 11:02:20;;;;;;;30.70;20.20;;;8.90;99.90;;;;;;4999219;28;37445;-80
2023/02/22 11:04:52;;;;;;;33.77;20.00;;;8.80;99.90;;;;;;5008211;28;40277;-83
2023/02/22 11:07:33;;;;;;;30.33;20.50;;;8.80;99.90;;;;;;4997426;28;37814;-83
2023/02/22 11:10:04;;;;;;;33.33;20.10;;;8.80;99.90;;;;;;5014027;28;37843;-83
2023/02/22 11:12:46;;;;;;;31.90;20.08;;;8.90;99.90;;;;;;4995276;28;35999;-83
2023/02/22 11:15:21;;;;;;;32.80;20.63;;;9.00;99.90;;;;;;5006143;28;39733;-82
2023/02/22 11:17:51;;;;;;;31.77;20.53;;;9.00;99.90;;;;;;5003617;28;38184;-83
2023/02/22 11:20:24;;;;;;;34.57;20.27;;;9.10;99.90;;;;;;5012739;28;38401;-83
2023/02/22 11:23:01;;;;;;;30.67;20.70;;;9.00;99.90;;;;;;5007307;28;36148;-82
2023/02/22 11:25:32;;;;;;;35.20;21.07;;;9.00;99.90;;;;;;5029628;28;50093;-82
2023/02/22 11:28:31;;;;;;;35.37;20.63;;;9.00;99.90;;;;;;5021710;28;38797;-84
2023/02/22 11:31:21;;;;;;;29.30;20.37;;;9.20;99.90;;;;;;5019328;28;48003;-84
2023/02/22 11:33:58;;;;;;;34.33;21.50;;;9.40;99.90;;;;;;5014559;28;47221;-84
2023/02/22 11:36:39;;;;;;;32.70;20.20;;;9.50;99.90;;;;;;5001957;28;39109;-84
2023/02/22 11:39:27;;;;;;;32.53;21.23;;;9.50;99.90;;;;;;5027204;28;38709;-84
2023/02/22 11:42:24;;;;;;;34.23;21.50;;;9.60;99.90;;;;;;5044154;28;39580;-83
2023/02/22 11:45:20;;;;;;;30.63;19.77;;;9.90;99.90;;;;;;5022719;28;48230;-82
2023/02/22 11:48:03;;;;;;;32.87;20.03;;;9.90;99.90;;;;;;5007679;28;47715;-83
2023/02/22 11:50:32;;;;;;;33.13;20.30;;;10.00;99.90;;;;;;5042851;28;49184;-83
2023/02/22 11:53:37;;;;;;;32.43;19.90;;;9.80;99.90;;;;;;5024400;28;38809;-83
2023/02/22 11:56:43;;;;;;;36.13;21.27;;;9.70;99.90;;;;;;5015150;28;47188;-83
2023/02/22 11:59:30;;;;;;;33.08;20.98;;;9.50;99.90;;;;;;5023350;28;40304;-83
2023/02/22 12:02:19;;;;;;;31.07;20.60;;;9.60;99.90;;;;;;5013671;28;38768;-83
2023/02/22 12:04:59;;;;;;;31.73;20.77;;;9.50;99.90;;;;;;5012729;28;48012;-83
2023/02/22 12:07:55;;;;;;;35.10;22.27;;;9.60;99.90;;;;;;5044038;28;38768;-83
2023/02/22 12:10:31;;;;;;;34.63;21.13;;;9.60;99.90;;;;;;5024453;28;39041;-83
2023/02/22 12:13:35;;;;;;;32.73;20.30;;;9.60;99.90;;;;;;5005172;28;38970;-84
2023/02/22 12:16:30;;;;;;;31.03;19.63;;;9.70;99.90;;;;;;4998296;28;47720;-79
2023/02/22 12:19:02;;;;;;;33.47;20.13;;;9.80;99.90;;;;;;5029569;28;39033;-83
2023/02/22 12:21:30;;;;;;;33.03;20.77;;;9.80;99.90;;;;;;5020999;28;49309;-82
2023/02/22 12:24:17;;;;;;;33.23;20.90;;;9.80;99.90;;;;;;5028516;28;39967;-83
2023/02/22 12:26:52;;;;;;;29.70;19.20;;;9.70;99.90;;;;;;5035757;28;48937;-83
2023/02/22 12:29:37;;;;;;;28.87;19.23;;;9.80;99.90;;;;;;5016463;28;37845;-83
2023/02/22 12:32:10;;;;;;;28.23;18.90;;;9.90;99.90;;;;;;5400344;23;37735;-83
2023/02/22 12:34:45;;;;;;;29.73;21.00;;;10.00;99.90;;;;;;5020498;28;38242;-84
2023/02/22 13:21:16;;;;;;;28.67;18.63;;;10.80;99.90;;;;;;5505676;23;20044;-81
2023/02/22 14:01:48;;;;;;;29.60;20.05;;;10.70;99.90;;;;;;5338404;23;20051;-81
2023/02/22 14:56:57;;;;;;;44.33;30.92;;;10.80;99.90;;;;;;5105322;23;20043;-81
2023/02/22 14:59:27;;;;;;;44.13;32.37;;;10.80;99.90;;;;;;4940856;28;38479;-82
2023/02/22 15:02:12;;;;;;;44.85;32.53;;;10.70;99.90;;;;;;4988227;28;38198;-81
2023/02/22 15:04:43;;;;;;;44.87;33.73;;;10.70;99.90;;;;;;4964667;28;47683;-81
2023/02/22 15:07:28;;;;;;;50.15;35.60;;;10.80;99.90;;;;;;5001619;28;41136;-81
2023/02/22 15:10:06;;;;;;;55.20;38.42;;;10.70;99.90;;;;;;4997778;28;38650;-81
2023/02/22 15:16:08;;;;;;;58.60;41.83;;;10.50;99.90;;;;;;5023611;28;50621;-84
2023/02/22 15:18:40;;;;;;;70.70;46.10;;;10.40;99.90;;;;;;5003687;28;49402;-81
2023/02/22 15:21:11;;;;;;;71.00;47.70;;;10.40;99.90;;;;;;5022842;28;39383;-82
2023/02/22 15:24:29;;;;;;;75.13;47.07;;;10.20;99.90;;;;;;4998984;28;37884;-82
2023/02/22 15:27:02;;;;;;;75.00;47.90;;;10.20;99.90;;;;;;5007367;28;49195;-82
2023/02/22 15:29:43;;;;;;;74.63;48.07;;;10.20;99.90;;;;;;5003378;28;50375;-83
2023/02/22 15:32:28;;;;;;;82.47;53.63;;;10.10;99.90;;;;;;5008703;28;38761;-81
2023/02/22 15:35:04;;;;;;;78.27;50.13;;;10.10;99.90;;;;;;4991246;28;37696;-83
2023/02/22 15:37:37;;;;;;;81.53;53.20;;;10.10;99.90;;;;;;4995484;28;46828;-83
2023/02/22 15:40:31;;;;;;;78.63;49.43;;;10.10;99.90;;;;;;4989316;28;39077;-81
2023/02/22 15:43:09;;;;;;;83.97;51.53;;;10.10;99.90;;;;;;4994154;28;48768;-83
2023/02/22 15:45:43;;;;;;;91.73;55.37;;;10.10;99.90;;;;;;4976428;28;47981;-82
2023/02/22 15:48:17;;;;;;;89.93;54.30;;;10.00;99.90;;;;;;4997662;28;40175;-82
2023/02/22 15:51:12;;;;;;;83.43;50.50;;;10.00;99.90;;;;;;5001442;28;37951;-82
2023/02/22 15:54:00;;;;;;;85.60;53.97;;;9.90;99.90;;;;;;4997173;28;49113;-82
2023/02/22 15:57:00;;;;;;;85.50;53.40;;;9.90;99.90;;;;;;4984618;28;38613;-81
2023/02/22 15:59:32;;;;;;;81.93;52.23;;;9.90;99.90;;;;;;4984507;28;47988;-81
2023/02/22 16:02:02;;;;;;;81.25;52.15;;;9.90;99.90;;;;;;4996166;28;38464;-82
2023/02/22 16:21:57;;;;;;;87.70;51.20;;;9.70;99.90;;;;;;5708026;23;20039;-84
2023/02/22 16:24:50;;;;;;;84.27;51.23;;;9.60;99.90;;;;;;4996600;28;39680;-84
2023/02/22 16:27:24;;;;;;;81.40;48.27;;;9.70;99.90;;;;;;4998571;28;39656;-83
2023/02/22 16:32:26;;;;;;;82.87;48.33;;;9.60;99.90;;;;;;5691096;23;20046;-84
2023/02/22 16:37:28;;;;;;;78.80;50.27;;;9.60;99.90;;;;;;5117171;23;20042;-82
2023/02/22 16:39:55;;;;;;;90.43;52.13;;;9.50;99.90;;;;;;4994107;28;38472;-82
2023/02/22 16:42:25;;;;;;;83.30;49.83;;;9.50;99.90;;;;;;5002508;28;38440;-83
2023/02/22 16:44:52;;;;;;;85.77;49.57;;;9.50;99.90;;;;;;4993639;28;37205;-82
2023/02/22 16:47:19;;;;;;;78.47;48.10;;;9.50;99.90;;;;;;4987830;28;37512;-82
2023/02/22 16:49:51;;;;;;;78.43;47.03;;;9.50;99.90;;;;;;4996919;28;36700;-82
2023/02/22 16:52:18;;;;;;;78.15;47.30;;;9.40;99.90;;;;;;5004816;28;39271;-81
2023/02/22 16:54:45;;;;;;;78.27;47.63;;;9.40;99.90;;;;;;4999367;28;38238;-81
2023/02/22 16:57:17;;;;;;;77.90;48.27;;;9.40;99.90;;;;;;4995621;28;38661;-82
2023/02/22 16:59:46;;;;;;;75.65;47.35;;;9.30;99.90;;;;;;4995032;28;37550;-82
2023/02/22 17:02:14;;;;;;;85.57;49.37;;;9.20;99.90;;;;;;4992723;28;40228;-82
2023/02/22 17:04:48;;;;;;;83.33;50.57;;;9.20;99.90;;;;;;4985680;28;37401;-81
2023/02/22 17:07:29;;;;;;;79.70;49.20;;;9.10;99.90;;;;;;4992120;28;38581;-82
2023/02/22 17:09:58;;;;;;;93.97;54.13;;;9.10;99.90;;;;;;4997589;28;38212;-82
2023/02/22 17:12:29;;;;;;;85.50;50.87;;;9.00;99.90;;;;;;5006890;28;40367;-82
2023/02/22 17:14:55;;;;;;;82.97;49.23;;;9.00;99.90;;;;;;5003855;28;38848;-82
2023/02/22 17:17:21;;;;;;;84.67;51.47;;;9.00;99.90;;;;;;5000846;28;39312;-81